sensor_id;sensor_type;location;lat;lon;timestamp;P1;durP1;ratioP1;P2;durP2;ratioP2
11222;SDS011;5668;52.012;8.724;2023-05-19T00:01:53;8.47;;;4.00;;
11222;SDS011;5668;52.012;8.724;2023-05-19T00:04:20;5.10;;;3.90;;
11222;SDS011;5668;52.012;8.724;2023-05-19T00:06:48;4.47;;;3.67;;
11222;SDS011;5668;52.012;8.724;2023-05-19T00:09:16;5.87;;;3.93;;
11222;SDS011;5668;52.012;8.724;2023-05-19T00:11:44;5.07;;;3.80;;
11222;SDS011;5668;52.012;8.724;2023-05-19T00:14:11;4.30;;;3.90;;
11222;SDS011;5668;52.012;8.724;2023-05-19T00:16:39;7.23;;;4.70;;
11222;SDS011;5668;52.012;8.724;2023-05-19T00:19:08;7.40;;;4.70;;
11222;SDS011;5668;52.012;8.724;2023-05-19T00:21:36;6.33;;;3.97;;
11222;SDS011;5668;52.012;8.724;2023-05-19T00:24:03;6.20;;;4.53;;
11222;SDS011;5668;52.012;8.724;2023-05-19T00:26:32;4.40;;;3.90;;
11222;SDS011;5668;52.012;8.724;2023-05-19T00:28:59;5.27;;;4.00;;
11222;SDS011;5668;52.012;8.724;2023-05-19T00:31:27;6.83;;;4.00;;
11222;SDS011;5668;52.012;8.724;2023-05-19T00:33:55;6.50;;;4.63;;
11222;SDS011;5668;52.012;8.724;2023-05-19T00:36:24;6.27;;;4.53;;
11222;SDS011;5668;52.012;8.724;2023-05-19T00:38:51;8.63;;;4.60;;
11222;SDS011;5668;52.012;8.724;2023-05-19T00:41:18;5.73;;;4.27;;
11222;SDS011;5668;52.012;8.724;2023-05-19T00:43:46;5.53;;;4.33;;
11222;SDS011;5668;52.012;8.724;2023-05-19T00:46:14;5.93;;;4.23;;
11222;SDS011;5668;52.012;8.724;2023-05-19T00:48:41;7.27;;;4.23;;
11222;SDS011;5668;52.012;8.724;2023-05-19T00:51:09;9.03;;;4.30;;
11222;SDS011;5668;52.012;8.724;2023-05-19T00:53:41;6.87;;;4.73;;
11222;SDS011;5668;52.012;8.724;2023-05-19T00:56:13;6.70;;;4.80;;
11222;SDS011;5668;52.012;8.724;2023-05-19T00:58:41;6.50;;;4.70;;
11222;SDS011;5668;52.012;8.724;2023-05-19T01:01:09;8.23;;;4.80;;
11222;SDS011;5668;52.012;8.724;2023-05-19T01:03:38;8.20;;;4.60;;
11222;SDS011;5668;52.012;8.724;2023-05-19T01:06:06;6.30;;;4.60;;
11222;SDS011;5668;52.012;8.724;2023-05-19T01:08:34;5.90;;;4.20;;
11222;SDS011;5668;52.012;8.724;2023-05-19T01:11:04;5.10;;;4.07;;
11222;SDS011;5668;52.012;8.724;2023-05-19T01:13:32;5.87;;;3.83;;
11222;SDS011;5668;52.012;8.724;2023-05-19T01:16:03;6.80;;;3.90;;
11222;SDS011;5668;52.012;8.724;2023-05-19T01:18:38;4.30;;;3.83;;
11222;SDS011;5668;52.012;8.724;2023-05-19T01:21:25;5.00;;;3.60;;
11222;SDS011;5668;52.012;8.724;2023-05-19T01:24:31;5.67;;;3.87;;
11222;SDS011;5668;52.012;8.724;2023-05-19T01:27:51;6.67;;;4.03;;
11222;SDS011;5668;52.012;8.724;2023-05-19T01:30:37;5.17;;;3.43;;
11222;SDS011;5668;52.012;8.724;2023-05-19T01:33:07;6.13;;;3.30;;
11222;SDS011;5668;52.012;8.724;2023-05-19T01:35:36;5.03;;;3.17;;
11222;SDS011;5668;52.012;8.724;2023-05-19T01:38:06;4.13;;;3.40;;
11222;SDS011;5668;52.012;8.724;2023-05-19T01:40:35;6.83;;;4.27;;
11222;SDS011;5668;52.012;8.724;2023-05-19T01:43:05;5.00;;;3.70;;
11222;SDS011;5668;52.012;8.724;2023-05-19T01:45:34;4.03;;;3.57;;
11222;SDS011;5668;52.012;8.724;2023-05-19T01:48:03;4.57;;;3.80;;
11222;SDS011;5668;52.012;8.724;2023-05-19T01:50:32;5.57;;;3.77;;
11222;SDS011;5668;52.012;8.724;2023-05-19T01:52:59;4.37;;;3.60;;
11222;SDS011;5668;52.012;8.724;2023-05-19T01:55:27;6.93;;;4.10;;
11222;SDS011;5668;52.012;8.724;2023-05-19T01:57:57;5.87;;;3.77;;
11222;SDS011;5668;52.012;8.724;2023-05-19T02:00:34;5.07;;;3.53;;
11222;SDS011;5668;52.012;8.724;2023-05-19T02:03:15;6.47;;;4.13;;
11222;SDS011;5668;52.012;8.724;2023-05-19T02:05:54;4.20;;;3.80;;
11222;SDS011;5668;52.012;8.724;2023-05-19T02:08:29;4.63;;;3.80;;
11222;SDS011;5668;52.012;8.724;2023-05-19T02:10:59;4.47;;;3.57;;
11222;SDS011;5668;52.012;8.724;2023-05-19T02:13:33;7.60;;;4.23;;
11222;SDS011;5668;52.012;8.724;2023-05-19T02:16:04;6.60;;;3.80;;
11222;SDS011;5668;52.012;8.724;2023-05-19T02:18:33;4.70;;;3.97;;
11222;SDS011;5668;52.012;8.724;2023-05-19T02:21:01;5.47;;;3.87;;
11222;SDS011;5668;52.012;8.724;2023-05-19T02:23:28;5.90;;;3.73;;
11222;SDS011;5668;52.012;8.724;2023-05-19T02:25:55;5.30;;;3.73;;
11222;SDS011;5668;52.012;8.724;2023-05-19T02:28:23;6.40;;;3.80;;
11222;SDS011;5668;52.012;8.724;2023-05-19T02:30:52;5.10;;;4.03;;
11222;SDS011;5668;52.012;8.724;2023-05-19T02:33:19;4.73;;;3.73;;
11222;SDS011;5668;52.012;8.724;2023-05-19T02:35:49;5.63;;;3.80;;
11222;SDS011;5668;52.012;8.724;2023-05-19T02:38:17;6.03;;;3.60;;
11222;SDS011;5668;52.012;8.724;2023-05-19T02:40:45;4.43;;;3.87;;
11222;SDS011;5668;52.012;8.724;2023-05-19T02:43:12;4.93;;;3.50;;
11222;SDS011;5668;52.012;8.724;2023-05-19T02:45:39;4.90;;;3.50;;
11222;SDS011;5668;52.012;8.724;2023-05-19T02:48:06;4.77;;;3.53;;
11222;SDS011;5668;52.012;8.724;2023-05-19T02:50:34;4.33;;;3.63;;
11222;SDS011;5668;52.012;8.724;2023-05-19T02:53:02;5.00;;;3.37;;
11222;SDS011;5668;52.012;8.724;2023-05-19T02:55:29;5.13;;;3.40;;
11222;SDS011;5668;52.012;8.724;2023-05-19T02:57:57;5.20;;;3.53;;
11222;SDS011;5668;52.012;8.724;2023-05-19T03:02:53;4.30;;;3.37;;
11222;SDS011;5668;52.012;8.724;2023-05-19T03:05:20;5.23;;;3.53;;
11222;SDS011;5668;52.012;8.724;2023-05-19T03:07:48;3.47;;;3.10;;
11222;SDS011;5668;52.012;8.724;2023-05-19T03:10:16;5.13;;;3.47;;
11222;SDS011;5668;52.012;8.724;2023-05-19T03:12:45;6.10;;;3.67;;
11222;SDS011;5668;52.012;8.724;2023-05-19T03:15:12;5.50;;;3.40;;
11222;SDS011;5668;52.012;8.724;2023-05-19T03:17:40;5.30;;;3.87;;
11222;SDS011;5668;52.012;8.724;2023-05-19T03:20:08;4.43;;;3.37;;
11222;SDS011;5668;52.012;8.724;2023-05-19T03:22:36;4.80;;;3.40;;
11222;SDS011;5668;52.012;8.724;2023-05-19T03:25:03;5.97;;;3.80;;
11222;SDS011;5668;52.012;8.724;2023-05-19T03:27:32;5.23;;;3.70;;
11222;SDS011;5668;52.012;8.724;2023-05-19T03:29:59;4.33;;;3.33;;
11222;SDS011;5668;52.012;8.724;2023-05-19T03:32:26;5.73;;;3.77;;
11222;SDS011;5668;52.012;8.724;2023-05-19T03:34:53;6.43;;;3.80;;
11222;SDS011;5668;52.012;8.724;2023-05-19T03:37:21;5.17;;;3.50;;
11222;SDS011;5668;52.012;8.724;2023-05-19T03:39:48;4.93;;;3.40;;
11222;SDS011;5668;52.012;8.724;2023-05-19T03:42:15;4.80;;;3.97;;
11222;SDS011;5668;52.012;8.724;2023-05-19T03:44:44;5.33;;;3.90;;
11222;SDS011;5668;52.012;8.724;2023-05-19T03:47:11;5.77;;;3.90;;
11222;SDS011;5668;52.012;8.724;2023-05-19T03:49:38;5.27;;;3.87;;
11222;SDS011;5668;52.012;8.724;2023-05-19T03:52:05;4.40;;;3.80;;
11222;SDS011;5668;52.012;8.724;2023-05-19T03:54:33;6.80;;;3.90;;
11222;SDS011;5668;52.012;8.724;2023-05-19T03:57:03;3.73;;;3.40;;
11222;SDS011;5668;52.012;8.724;2023-05-19T03:59:30;5.57;;;3.50;;
11222;SDS011;5668;52.012;8.724;2023-05-19T04:02:00;5.87;;;3.73;;
11222;SDS011;5668;52.012;8.724;2023-05-19T04:04:27;5.30;;;3.73;;
11222;SDS011;5668;52.012;8.724;2023-05-19T04:06:55;5.50;;;4.00;;
11222;SDS011;5668;52.012;8.724;2023-05-19T04:09:22;4.33;;;3.53;;
11222;SDS011;5668;52.012;8.724;2023-05-19T04:11:49;4.10;;;3.70;;
11222;SDS011;5668;52.012;8.724;2023-05-19T04:14:17;5.47;;;3.77;;
11222;SDS011;5668;52.012;8.724;2023-05-19T04:16:44;4.20;;;3.57;;
11222;SDS011;5668;52.012;8.724;2023-05-19T04:19:13;5.23;;;3.60;;
11222;SDS011;5668;52.012;8.724;2023-05-19T04:21:40;4.10;;;3.70;;
11222;SDS011;5668;52.012;8.724;2023-05-19T04:24:07;4.20;;;3.80;;
11222;SDS011;5668;52.012;8.724;2023-05-19T04:26:34;5.07;;;4.00;;
11222;SDS011;5668;52.012;8.724;2023-05-19T04:29:02;5.50;;;4.40;;
11222;SDS011;5668;52.012;8.724;2023-05-19T04:31:29;4.63;;;4.10;;
11222;SDS011;5668;52.012;8.724;2023-05-19T04:33:58;6.90;;;4.20;;
11222;SDS011;5668;52.012;8.724;2023-05-19T04:36:27;6.67;;;4.13;;
11222;SDS011;5668;52.012;8.724;2023-05-19T04:38:55;9.40;;;4.80;;
11222;SDS011;5668;52.012;8.724;2023-05-19T04:41:26;7.57;;;3.97;;
11222;SDS011;5668;52.012;8.724;2023-05-19T04:43:53;6.37;;;4.10;;
11222;SDS011;5668;52.012;8.724;2023-05-19T04:46:21;5.77;;;4.23;;
11222;SDS011;5668;52.012;8.724;2023-05-19T04:48:50;7.33;;;4.50;;
11222;SDS011;5668;52.012;8.724;2023-05-19T04:51:19;6.63;;;4.57;;
11222;SDS011;5668;52.012;8.724;2023-05-19T04:53:47;6.03;;;4.30;;
11222;SDS011;5668;52.012;8.724;2023-05-19T04:56:15;7.10;;;4.80;;
11222;SDS011;5668;52.012;8.724;2023-05-19T04:58:42;5.40;;;4.50;;
11222;SDS011;5668;52.012;8.724;2023-05-19T05:01:10;7.70;;;4.17;;
11222;SDS011;5668;52.012;8.724;2023-05-19T05:03:39;6.87;;;4.53;;
11222;SDS011;5668;52.012;8.724;2023-05-19T05:06:07;4.63;;;4.07;;
11222;SDS011;5668;52.012;8.724;2023-05-19T05:08:35;5.03;;;4.33;;
11222;SDS011;5668;52.012;8.724;2023-05-19T05:11:06;5.27;;;3.97;;
11222;SDS011;5668;52.012;8.724;2023-05-19T05:13:34;6.67;;;3.93;;
11222;SDS011;5668;52.012;8.724;2023-05-19T05:16:02;26.20;;;18.00;;
11222;SDS011;5668;52.012;8.724;2023-05-19T05:18:30;37.07;;;27.77;;
11222;SDS011;5668;52.012;8.724;2023-05-19T05:20:58;138.20;;;107.43;;
11222;SDS011;5668;52.012;8.724;2023-05-19T05:23:26;98.53;;;80.20;;
11222;SDS011;5668;52.012;8.724;2023-05-19T05:25:54;61.10;;;48.60;;
11222;SDS011;5668;52.012;8.724;2023-05-19T05:28:22;31.73;;;25.80;;
11222;SDS011;5668;52.012;8.724;2023-05-19T05:30:50;19.47;;;16.37;;
11222;SDS011;5668;52.012;8.724;2023-05-19T05:33:17;13.53;;;10.70;;
11222;SDS011;5668;52.012;8.724;2023-05-19T05:35:46;12.07;;;9.73;;
11222;SDS011;5668;52.012;8.724;2023-05-19T05:38:14;10.30;;;7.43;;
11222;SDS011;5668;52.012;8.724;2023-05-19T05:40:41;9.67;;;6.53;;
11222;SDS011;5668;52.012;8.724;2023-05-19T05:43:08;8.60;;;5.93;;
11222;SDS011;5668;52.012;8.724;2023-05-19T05:45:37;7.83;;;5.53;;
11222;SDS011;5668;52.012;8.724;2023-05-19T05:48:04;10.97;;;5.30;;
11222;SDS011;5668;52.012;8.724;2023-05-19T05:50:32;8.30;;;5.10;;
11222;SDS011;5668;52.012;8.724;2023-05-19T05:53:00;7.83;;;5.00;;
11222;SDS011;5668;52.012;8.724;2023-05-19T05:55:29;7.27;;;5.40;;
11222;SDS011;5668;52.012;8.724;2023-05-19T05:57:56;6.53;;;4.77;;
11222;SDS011;5668;52.012;8.724;2023-05-19T06:00:26;8.07;;;4.80;;
11222;SDS011;5668;52.012;8.724;2023-05-19T06:02:55;7.63;;;5.00;;
11222;SDS011;5668;52.012;8.724;2023-05-19T06:05:23;5.70;;;5.00;;
11222;SDS011;5668;52.012;8.724;2023-05-19T06:07:50;6.00;;;5.07;;
11222;SDS011;5668;52.012;8.724;2023-05-19T06:10:17;7.63;;;5.50;;
11222;SDS011;5668;52.012;8.724;2023-05-19T06:12:46;9.07;;;5.40;;
11222;SDS011;5668;52.012;8.724;2023-05-19T06:15:13;8.17;;;5.60;;
11222;SDS011;5668;52.012;8.724;2023-05-19T06:17:40;7.37;;;5.10;;
11222;SDS011;5668;52.012;8.724;2023-05-19T06:20:10;6.33;;;4.70;;
11222;SDS011;5668;52.012;8.724;2023-05-19T06:22:38;7.20;;;5.27;;
11222;SDS011;5668;52.012;8.724;2023-05-19T06:25:06;8.90;;;5.63;;
11222;SDS011;5668;52.012;8.724;2023-05-19T06:27:34;7.13;;;4.83;;
11222;SDS011;5668;52.012;8.724;2023-05-19T06:30:01;7.17;;;5.40;;
11222;SDS011;5668;52.012;8.724;2023-05-19T06:32:28;6.73;;;4.63;;
11222;SDS011;5668;52.012;8.724;2023-05-19T06:34:56;6.57;;;4.37;;
11222;SDS011;5668;52.012;8.724;2023-05-19T06:37:24;7.17;;;5.70;;
11222;SDS011;5668;52.012;8.724;2023-05-19T06:39:52;8.23;;;4.93;;
11222;SDS011;5668;52.012;8.724;2023-05-19T06:42:19;6.00;;;4.50;;
11222;SDS011;5668;52.012;8.724;2023-05-19T06:44:48;6.73;;;4.20;;
11222;SDS011;5668;52.012;8.724;2023-05-19T06:47:15;7.73;;;4.27;;
11222;SDS011;5668;52.012;8.724;2023-05-19T06:49:43;5.70;;;4.13;;
11222;SDS011;5668;52.012;8.724;2023-05-19T06:52:10;6.00;;;3.50;;
11222;SDS011;5668;52.012;8.724;2023-05-19T06:54:39;8.37;;;4.53;;
11222;SDS011;5668;52.012;8.724;2023-05-19T06:57:06;7.80;;;4.60;;
11222;SDS011;5668;52.012;8.724;2023-05-19T06:59:33;5.10;;;4.33;;
11222;SDS011;5668;52.012;8.724;2023-05-19T07:02:04;7.33;;;4.13;;
11222;SDS011;5668;52.012;8.724;2023-05-19T07:04:32;5.90;;;4.13;;
11222;SDS011;5668;52.012;8.724;2023-05-19T07:06:59;5.53;;;3.63;;
11222;SDS011;5668;52.012;8.724;2023-05-19T07:09:27;7.13;;;4.17;;
11222;SDS011;5668;52.012;8.724;2023-05-19T07:11:55;4.77;;;3.57;;
11222;SDS011;5668;52.012;8.724;2023-05-19T07:14:22;7.03;;;3.90;;
11222;SDS011;5668;52.012;8.724;2023-05-19T07:16:50;6.30;;;3.97;;
11222;SDS011;5668;52.012;8.724;2023-05-19T07:19:17;6.20;;;3.57;;
11222;SDS011;5668;52.012;8.724;2023-05-19T07:21:44;6.13;;;3.77;;
11222;SDS011;5668;52.012;8.724;2023-05-19T07:24:12;4.60;;;3.37;;
11222;SDS011;5668;52.012;8.724;2023-05-19T07:26:39;4.60;;;3.23;;
11222;SDS011;5668;52.012;8.724;2023-05-19T07:29:08;8.13;;;3.63;;
11222;SDS011;5668;52.012;8.724;2023-05-19T07:31:35;5.53;;;4.70;;
11222;SDS011;5668;52.012;8.724;2023-05-19T07:34:02;6.53;;;4.60;;
11222;SDS011;5668;52.012;8.724;2023-05-19T07:36:29;8.53;;;5.40;;
11222;SDS011;5668;52.012;8.724;2023-05-19T07:38:58;6.50;;;5.13;;
11222;SDS011;5668;52.012;8.724;2023-05-19T07:41:25;5.97;;;3.73;;
11222;SDS011;5668;52.012;8.724;2023-05-19T07:43:52;5.20;;;4.10;;
11222;SDS011;5668;52.012;8.724;2023-05-19T07:46:21;5.63;;;3.77;;
11222;SDS011;5668;52.012;8.724;2023-05-19T07:48:48;4.20;;;3.27;;
11222;SDS011;5668;52.012;8.724;2023-05-19T07:51:15;5.13;;;3.00;;
11222;SDS011;5668;52.012;8.724;2023-05-19T07:53:43;4.83;;;2.97;;
11222;SDS011;5668;52.012;8.724;2023-05-19T07:56:11;4.27;;;2.60;;
11222;SDS011;5668;52.012;8.724;2023-05-19T07:58:38;4.30;;;2.70;;
11222;SDS011;5668;52.012;8.724;2023-05-19T08:01:05;5.70;;;3.55;;
11222;SDS011;5668;52.012;8.724;2023-05-19T08:03:34;5.20;;;2.80;;
11222;SDS011;5668;52.012;8.724;2023-05-19T08:06:01;10.23;;;5.57;;
11222;SDS011;5668;52.012;8.724;2023-05-19T08:08:28;25.05;;;22.35;;
11222;SDS011;5668;52.012;8.724;2023-05-19T08:11:00;15.50;;;13.65;;
11222;SDS011;5668;52.012;8.724;2023-05-19T08:13:28;19.17;;;15.88;;
11222;SDS011;5668;52.012;8.724;2023-05-19T08:15:55;43.78;;;34.22;;
11222;SDS011;5668;52.012;8.724;2023-05-19T08:18:23;31.65;;;26.27;;
11222;SDS011;5668;52.012;8.724;2023-05-19T08:20:52;18.67;;;15.13;;
11222;SDS011;5668;52.012;8.724;2023-05-19T08:23:20;13.20;;;10.68;;
11222;SDS011;5668;52.012;8.724;2023-05-19T08:25:47;9.57;;;6.90;;
11222;SDS011;5668;52.012;8.724;2023-05-19T08:28:14;9.93;;;3.83;;
11222;SDS011;5668;52.012;8.724;2023-05-19T08:30:42;32.42;;;21.77;;
11222;SDS011;5668;52.012;8.724;2023-05-19T08:33:09;86.18;;;67.78;;
11222;SDS011;5668;52.012;8.724;2023-05-19T08:35:36;76.95;;;65.20;;
11222;SDS011;5668;52.012;8.724;2023-05-19T08:38:04;36.25;;;30.95;;
11222;SDS011;5668;52.012;8.724;2023-05-19T08:40:32;16.40;;;13.55;;
11222;SDS011;5668;52.012;8.724;2023-05-19T08:43:02;17.02;;;8.50;;
11222;SDS011;5668;52.012;8.724;2023-05-19T08:45:29;33.30;;;22.85;;
11222;SDS011;5668;52.012;8.724;2023-05-19T08:47:58;15.07;;;11.13;;
11222;SDS011;5668;52.012;8.724;2023-05-19T08:50:27;9.82;;;5.13;;
11222;SDS011;5668;52.012;8.724;2023-05-19T08:52:58;25.27;;;19.75;;
11222;SDS011;5668;52.012;8.724;2023-05-19T08:55:35;33.80;;;30.50;;
11222;SDS011;5668;52.012;8.724;2023-05-19T08:58:09;29.50;;;26.60;;
11222;SDS011;5668;52.012;8.724;2023-05-19T09:00:37;18.77;;;16.98;;
11222;SDS011;5668;52.012;8.724;2023-05-19T09:03:05;25.20;;;23.00;;
11222;SDS011;5668;52.012;8.724;2023-05-19T09:05:33;38.08;;;34.97;;
11222;SDS011;5668;52.012;8.724;2023-05-19T09:08:00;20.73;;;19.00;;
11222;SDS011;5668;52.012;8.724;2023-05-19T09:10:29;11.75;;;10.73;;
11222;SDS011;5668;52.012;8.724;2023-05-19T09:12:58;7.43;;;6.72;;
11222;SDS011;5668;52.012;8.724;2023-05-19T09:15:26;8.60;;;7.80;;
11222;SDS011;5668;52.012;8.724;2023-05-19T09:18:02;5.78;;;4.22;;
11222;SDS011;5668;52.012;8.724;2023-05-19T09:20:35;9.75;;;8.82;;
11222;SDS011;5668;52.012;8.724;2023-05-19T09:23:03;17.83;;;15.95;;
11222;SDS011;5668;52.012;8.724;2023-05-19T09:25:31;11.18;;;9.95;;
11222;SDS011;5668;52.012;8.724;2023-05-19T09:28:00;11.35;;;10.25;;
11222;SDS011;5668;52.012;8.724;2023-05-19T09:30:27;8.30;;;7.00;;
11222;SDS011;5668;52.012;8.724;2023-05-19T09:32:55;9.55;;;8.52;;
11222;SDS011;5668;52.012;8.724;2023-05-19T09:35:22;8.30;;;6.50;;
11222;SDS011;5668;52.012;8.724;2023-05-19T09:37:49;3.33;;;2.97;;
11222;SDS011;5668;52.012;8.724;2023-05-19T09:40:18;3.35;;;1.60;;
11222;SDS011;5668;52.012;8.724;2023-05-19T09:42:46;2.95;;;1.60;;
11222;SDS011;5668;52.012;8.724;2023-05-19T09:45:15;2.33;;;1.33;;
11222;SDS011;5668;52.012;8.724;2023-05-19T09:47:42;3.03;;;1.38;;
11222;SDS011;5668;52.012;8.724;2023-05-19T09:50:11;4.15;;;1.50;;
11222;SDS011;5668;52.012;8.724;2023-05-19T09:52:42;2.75;;;1.38;;
11222;SDS011;5668;52.012;8.724;2023-05-19T09:55:10;2.25;;;1.33;;
11222;SDS011;5668;52.012;8.724;2023-05-19T09:57:38;3.10;;;1.38;;
11222;SDS011;5668;52.012;8.724;2023-05-19T10:00:06;3.10;;;1.77;;
11222;SDS011;5668;52.012;8.724;2023-05-19T10:02:39;3.00;;;1.50;;
11222;SDS011;5668;52.012;8.724;2023-05-19T10:05:09;2.90;;;1.40;;
11222;SDS011;5668;52.012;8.724;2023-05-19T10:07:40;4.10;;;1.30;;
11222;SDS011;5668;52.012;8.724;2023-05-19T10:10:11;4.90;;;1.30;;
11222;SDS011;5668;52.012;8.724;2023-05-19T10:12:40;4.63;;;1.60;;
11222;SDS011;5668;52.012;8.724;2023-05-19T10:15:08;2.15;;;1.27;;
11222;SDS011;5668;52.012;8.724;2023-05-19T10:17:37;2.55;;;1.50;;
11222;SDS011;5668;52.012;8.724;2023-05-19T10:20:08;1.92;;;1.05;;
11222;SDS011;5668;52.012;8.724;2023-05-19T10:22:39;2.35;;;1.35;;
11222;SDS011;5668;52.012;8.724;2023-05-19T10:25:08;4.22;;;1.73;;
11222;SDS011;5668;52.012;8.724;2023-05-19T10:27:37;4.65;;;1.52;;
11222;SDS011;5668;52.012;8.724;2023-05-19T10:30:11;2.47;;;1.50;;
11222;SDS011;5668;52.012;8.724;2023-05-19T10:32:42;2.35;;;1.20;;
11222;SDS011;5668;52.012;8.724;2023-05-19T10:35:19;3.63;;;1.20;;
11222;SDS011;5668;52.012;8.724;2023-05-19T10:38:10;3.28;;;1.30;;
11222;SDS011;5668;52.012;8.724;2023-05-19T10:40:50;4.80;;;1.40;;
11222;SDS011;5668;52.012;8.724;2023-05-19T10:43:28;2.55;;;1.00;;
11222;SDS011;5668;52.012;8.724;2023-05-19T10:46:03;3.58;;;1.33;;
11222;SDS011;5668;52.012;8.724;2023-05-19T10:48:33;2.67;;;1.40;;
11222;SDS011;5668;52.012;8.724;2023-05-19T10:51:01;2.95;;;1.20;;
11222;SDS011;5668;52.012;8.724;2023-05-19T10:53:29;2.35;;;1.00;;
11222;SDS011;5668;52.012;8.724;2023-05-19T10:55:57;2.85;;;1.30;;
11222;SDS011;5668;52.012;8.724;2023-05-19T10:58:35;2.88;;;1.23;;
11222;SDS011;5668;52.012;8.724;2023-05-19T11:01:05;3.17;;;1.40;;
11222;SDS011;5668;52.012;8.724;2023-05-19T11:03:45;2.72;;;1.50;;
11222;SDS011;5668;52.012;8.724;2023-05-19T11:06:20;4.18;;;1.63;;
11222;SDS011;5668;52.012;8.724;2023-05-19T11:08:52;2.85;;;1.42;;
11222;SDS011;5668;52.012;8.724;2023-05-19T11:11:24;3.20;;;1.58;;
11222;SDS011;5668;52.012;8.724;2023-05-19T11:14:07;3.25;;;1.90;;
11222;SDS011;5668;52.012;8.724;2023-05-19T11:16:38;2.92;;;1.63;;
11222;SDS011;5668;52.012;8.724;2023-05-19T11:19:08;2.13;;;1.30;;
11222;SDS011;5668;52.012;8.724;2023-05-19T11:21:50;3.38;;;1.42;;
11222;SDS011;5668;52.012;8.724;2023-05-19T11:24:32;2.50;;;1.30;;
11222;SDS011;5668;52.012;8.724;2023-05-19T11:29:44;3.17;;;1.30;;
11222;SDS011;5668;52.012;8.724;2023-05-19T11:32:12;3.30;;;1.42;;
11222;SDS011;5668;52.012;8.724;2023-05-19T11:34:41;2.78;;;1.50;;
11222;SDS011;5668;52.012;8.724;2023-05-19T11:37:10;2.58;;;1.38;;
11222;SDS011;5668;52.012;8.724;2023-05-19T11:39:38;2.78;;;1.50;;
11222;SDS011;5668;52.012;8.724;2023-05-19T11:42:05;2.55;;;1.50;;
11222;SDS011;5668;52.012;8.724;2023-05-19T11:44:35;1.33;;;1.23;;
11222;SDS011;5668;52.012;8.724;2023-05-19T11:47:02;2.60;;;1.40;;
11222;SDS011;5668;52.012;8.724;2023-05-19T11:49:30;3.42;;;1.38;;
11222;SDS011;5668;52.012;8.724;2023-05-19T11:52:00;2.10;;;1.50;;
11222;SDS011;5668;52.012;8.724;2023-05-19T11:54:31;3.15;;;1.60;;
11222;SDS011;5668;52.012;8.724;2023-05-19T11:57:01;2.25;;;1.15;;
11222;SDS011;5668;52.012;8.724;2023-05-19T11:59:29;1.48;;;1.10;;
11222;SDS011;5668;52.012;8.724;2023-05-19T12:01:59;2.10;;;1.20;;
11222;SDS011;5668;52.012;8.724;2023-05-19T12:04:28;4.88;;;1.30;;
11222;SDS011;5668;52.012;8.724;2023-05-19T12:06:56;3.47;;;1.45;;
11222;SDS011;5668;52.012;8.724;2023-05-19T12:09:25;2.67;;;1.60;;
11222;SDS011;5668;52.012;8.724;2023-05-19T12:11:54;3.88;;;1.70;;
11222;SDS011;5668;52.012;8.724;2023-05-19T12:14:21;2.78;;;1.33;;
11222;SDS011;5668;52.012;8.724;2023-05-19T12:16:50;2.28;;;1.42;;
11222;SDS011;5668;52.012;8.724;2023-05-19T12:19:18;3.25;;;1.58;;
11222;SDS011;5668;52.012;8.724;2023-05-19T12:21:49;2.72;;;1.50;;
11222;SDS011;5668;52.012;8.724;2023-05-19T12:24:17;3.95;;;1.65;;
11222;SDS011;5668;52.012;8.724;2023-05-19T12:26:46;1.83;;;1.20;;
11222;SDS011;5668;52.012;8.724;2023-05-19T12:29:14;1.65;;;1.45;;
11222;SDS011;5668;52.012;8.724;2023-05-19T12:31:41;2.00;;;1.60;;
11222;SDS011;5668;52.012;8.724;2023-05-19T12:34:13;2.47;;;1.40;;
11222;SDS011;5668;52.012;8.724;2023-05-19T12:36:40;4.25;;;1.50;;
11222;SDS011;5668;52.012;8.724;2023-05-19T12:39:07;3.05;;;1.50;;
11222;SDS011;5668;52.012;8.724;2023-05-19T12:41:35;2.35;;;1.50;;
11222;SDS011;5668;52.012;8.724;2023-05-19T12:44:13;2.40;;;1.48;;
11222;SDS011;5668;52.012;8.724;2023-05-19T12:46:42;1.98;;;1.25;;
11222;SDS011;5668;52.012;8.724;2023-05-19T12:49:09;2.15;;;1.23;;
11222;SDS011;5668;52.012;8.724;2023-05-19T12:51:36;2.75;;;1.33;;
11222;SDS011;5668;52.012;8.724;2023-05-19T12:54:04;1.88;;;1.20;;
11222;SDS011;5668;52.012;8.724;2023-05-19T12:56:31;1.95;;;1.40;;
11222;SDS011;5668;52.012;8.724;2023-05-19T12:58:59;4.07;;;1.60;;
11222;SDS011;5668;52.012;8.724;2023-05-19T13:01:30;3.17;;;1.50;;
11222;SDS011;5668;52.012;8.724;2023-05-19T13:04:01;3.25;;;1.63;;
11222;SDS011;5668;52.012;8.724;2023-05-19T13:06:28;1.95;;;1.27;;
11222;SDS011;5668;52.012;8.724;2023-05-19T13:08:57;1.80;;;1.42;;
11222;SDS011;5668;52.012;8.724;2023-05-19T13:11:24;3.33;;;1.80;;
11222;SDS011;5668;52.012;8.724;2023-05-19T13:13:51;2.50;;;1.20;;
11222;SDS011;5668;52.012;8.724;2023-05-19T13:16:18;2.35;;;1.27;;
11222;SDS011;5668;52.012;8.724;2023-05-19T13:18:47;3.08;;;1.23;;
11222;SDS011;5668;52.012;8.724;2023-05-19T13:21:15;2.75;;;1.48;;
11222;SDS011;5668;52.012;8.724;2023-05-19T13:23:42;6.28;;;1.70;;
11222;SDS011;5668;52.012;8.724;2023-05-19T13:26:10;2.42;;;1.45;;
11222;SDS011;5668;52.012;8.724;2023-05-19T13:28:37;3.90;;;1.50;;
11222;SDS011;5668;52.012;8.724;2023-05-19T13:31:04;2.10;;;1.55;;
11222;SDS011;5668;52.012;8.724;2023-05-19T13:33:32;1.77;;;1.25;;
11222;SDS011;5668;52.012;8.724;2023-05-19T13:36:00;4.82;;;1.90;;
11222;SDS011;5668;52.012;8.724;2023-05-19T13:38:27;2.10;;;1.30;;
11222;SDS011;5668;52.012;8.724;2023-05-19T13:40:55;4.57;;;1.40;;
11222;SDS011;5668;52.012;8.724;2023-05-19T13:43:22;3.03;;;1.45;;
11222;SDS011;5668;52.012;8.724;2023-05-19T13:45:49;1.73;;;1.38;;
11222;SDS011;5668;52.012;8.724;2023-05-19T13:48:16;1.65;;;1.30;;
11222;SDS011;5668;52.012;8.724;2023-05-19T13:50:44;3.22;;;1.30;;
11222;SDS011;5668;52.012;8.724;2023-05-19T13:53:12;2.58;;;1.42;;
11222;SDS011;5668;52.012;8.724;2023-05-19T13:55:39;2.70;;;1.10;;
11222;SDS011;5668;52.012;8.724;2023-05-19T13:58:06;6.80;;;1.40;;
11222;SDS011;5668;52.012;8.724;2023-05-19T14:00:34;2.40;;;1.38;;
11222;SDS011;5668;52.012;8.724;2023-05-19T14:03:02;1.77;;;1.40;;
11222;SDS011;5668;52.012;8.724;2023-05-19T14:05:29;2.28;;;1.40;;
11222;SDS011;5668;52.012;8.724;2023-05-19T14:07:57;1.38;;;1.20;;
11222;SDS011;5668;52.012;8.724;2023-05-19T14:10:26;1.45;;;1.15;;
11222;SDS011;5668;52.012;8.724;2023-05-19T14:12:53;3.28;;;1.50;;
11222;SDS011;5668;52.012;8.724;2023-05-19T14:15:23;2.03;;;1.30;;
11222;SDS011;5668;52.012;8.724;2023-05-19T14:17:50;3.38;;;1.20;;
11222;SDS011;5668;52.012;8.724;2023-05-19T14:20:20;3.38;;;1.30;;
11222;SDS011;5668;52.012;8.724;2023-05-19T14:22:48;1.60;;;1.20;;
11222;SDS011;5668;52.012;8.724;2023-05-19T14:25:15;3.78;;;1.40;;
11222;SDS011;5668;52.012;8.724;2023-05-19T14:27:44;2.95;;;1.35;;
11222;SDS011;5668;52.012;8.724;2023-05-19T14:30:11;1.55;;;1.20;;
11222;SDS011;5668;52.012;8.724;2023-05-19T14:32:38;2.22;;;1.17;;
11222;SDS011;5668;52.012;8.724;2023-05-19T14:35:06;2.78;;;1.42;;
11222;SDS011;5668;52.012;8.724;2023-05-19T14:37:33;2.08;;;1.23;;
11222;SDS011;5668;52.012;8.724;2023-05-19T14:40:01;1.42;;;1.23;;
11222;SDS011;5668;52.012;8.724;2023-05-19T14:42:29;1.90;;;1.27;;
11222;SDS011;5668;52.012;8.724;2023-05-19T14:44:57;4.03;;;1.20;;
11222;SDS011;5668;52.012;8.724;2023-05-19T14:47:24;3.50;;;1.38;;
11222;SDS011;5668;52.012;8.724;2023-05-19T14:49:52;3.28;;;1.30;;
11222;SDS011;5668;52.012;8.724;2023-05-19T14:52:19;3.20;;;1.25;;
11222;SDS011;5668;52.012;8.724;2023-05-19T14:54:46;3.15;;;1.40;;
11222;SDS011;5668;52.012;8.724;2023-05-19T14:57:13;2.85;;;1.30;;
11222;SDS011;5668;52.012;8.724;2023-05-19T14:59:40;1.80;;;1.25;;
11222;SDS011;5668;52.012;8.724;2023-05-19T15:02:09;4.03;;;1.40;;
11222;SDS011;5668;52.012;8.724;2023-05-19T15:04:36;1.85;;;1.20;;
11222;SDS011;5668;52.012;8.724;2023-05-19T15:07:03;2.65;;;1.33;;
11222;SDS011;5668;52.012;8.724;2023-05-19T15:09:31;3.38;;;1.42;;
11222;SDS011;5668;52.012;8.724;2023-05-19T15:11:58;1.83;;;1.20;;
11222;SDS011;5668;52.012;8.724;2023-05-19T15:14:25;2.03;;;1.30;;